sensor_id;sensor_type;location;lat;lon;timestamp;P1;durP1;ratioP1;P2;durP2;ratioP2
12433;SDS011;6281;49.038;8.372;2023-11-21T00:00:29;5.90;;;1.53;;
12433;SDS011;6281;49.038;8.372;2023-11-21T00:02:56;3.80;;;1.57;;
12433;SDS011;6281;49.038;8.372;2023-11-21T00:05:23;4.53;;;1.60;;
12433;SDS011;6281;49.038;8.372;2023-11-21T00:07:50;5.70;;;1.80;;
12433;SDS011;6281;49.038;8.372;2023-11-21T00:10:17;7.03;;;1.67;;
12433;SDS011;6281;49.038;8.372;2023-11-21T00:12:45;6.10;;;1.80;;
12433;SDS011;6281;49.038;8.372;2023-11-21T00:15:13;4.03;;;1.60;;
12433;SDS011;6281;49.038;8.372;2023-11-21T00:17:40;8.27;;;1.80;;
12433;SDS011;6281;49.038;8.372;2023-11-21T00:20:08;7.00;;;1.73;;
12433;SDS011;6281;49.038;8.372;2023-11-21T00:22:37;9.20;;;1.67;;
12433;SDS011;6281;49.038;8.372;2023-11-21T00:25:05;4.13;;;1.63;;
12433;SDS011;6281;49.038;8.372;2023-11-21T00:27:34;6.90;;;1.77;;
12433;SDS011;6281;49.038;8.372;2023-11-21T00:30:02;7.13;;;1.60;;
12433;SDS011;6281;49.038;8.372;2023-11-21T00:32:31;5.13;;;1.60;;
12433;SDS011;6281;49.038;8.372;2023-11-21T00:34:58;4.90;;;1.37;;
12433;SDS011;6281;49.038;8.372;2023-11-21T00:37:25;2.70;;;1.27;;
12433;SDS011;6281;49.038;8.372;2023-11-21T00:39:52;6.70;;;1.77;;
12433;SDS011;6281;49.038;8.372;2023-11-21T00:42:19;2.73;;;1.50;;
12433;SDS011;6281;49.038;8.372;2023-11-21T00:44:47;7.00;;;2.13;;
12433;SDS011;6281;49.038;8.372;2023-11-21T00:47:16;4.63;;;1.80;;
12433;SDS011;6281;49.038;8.372;2023-11-21T00:49:43;3.90;;;1.53;;
12433;SDS011;6281;49.038;8.372;2023-11-21T00:52:09;7.13;;;1.93;;
12433;SDS011;6281;49.038;8.372;2023-11-21T00:54:36;5.20;;;1.47;;
12433;SDS011;6281;49.038;8.372;2023-11-21T00:57:03;3.50;;;1.50;;
12433;SDS011;6281;49.038;8.372;2023-11-21T00:59:30;5.90;;;1.80;;
12433;SDS011;6281;49.038;8.372;2023-11-21T01:01:57;5.07;;;1.53;;
12433;SDS011;6281;49.038;8.372;2023-11-21T01:04:28;3.70;;;1.30;;
12433;SDS011;6281;49.038;8.372;2023-11-21T01:06:55;8.33;;;1.63;;
12433;SDS011;6281;49.038;8.372;2023-11-21T01:09:22;3.50;;;1.10;;
12433;SDS011;6281;49.038;8.372;2023-11-21T01:11:50;4.47;;;1.90;;
12433;SDS011;6281;49.038;8.372;2023-11-21T01:14:18;4.03;;;1.20;;
12433;SDS011;6281;49.038;8.372;2023-11-21T01:16:45;6.47;;;1.13;;
12433;SDS011;6281;49.038;8.372;2023-11-21T01:19:13;4.70;;;1.30;;
12433;SDS011;6281;49.038;8.372;2023-11-21T01:21:41;4.80;;;1.47;;
12433;SDS011;6281;49.038;8.372;2023-11-21T01:24:08;3.17;;;1.20;;
12433;SDS011;6281;49.038;8.372;2023-11-21T01:26:35;2.20;;;0.70;;
12433;SDS011;6281;49.038;8.372;2023-11-21T01:29:02;5.00;;;1.17;;
12433;SDS011;6281;49.038;8.372;2023-11-21T01:31:29;3.00;;;1.10;;
12433;SDS011;6281;49.038;8.372;2023-11-21T01:33:56;2.60;;;1.13;;
12433;SDS011;6281;49.038;8.372;2023-11-21T01:36:29;4.23;;;1.30;;
12433;SDS011;6281;49.038;8.372;2023-11-21T01:38:59;3.27;;;1.20;;
12433;SDS011;6281;49.038;8.372;2023-11-21T01:41:26;4.13;;;1.27;;
12433;SDS011;6281;49.038;8.372;2023-11-21T01:43:53;5.67;;;1.80;;
12433;SDS011;6281;49.038;8.372;2023-11-21T01:46:20;3.83;;;1.47;;
12433;SDS011;6281;49.038;8.372;2023-11-21T01:48:48;4.03;;;1.23;;
12433;SDS011;6281;49.038;8.372;2023-11-21T01:51:15;5.77;;;1.50;;
12433;SDS011;6281;49.038;8.372;2023-11-21T01:53:43;4.60;;;1.43;;
12433;SDS011;6281;49.038;8.372;2023-11-21T01:56:13;7.50;;;1.60;;
12433;SDS011;6281;49.038;8.372;2023-11-21T01:58:40;8.33;;;1.80;;
12433;SDS011;6281;49.038;8.372;2023-11-21T02:01:08;4.57;;;1.50;;
12433;SDS011;6281;49.038;8.372;2023-11-21T02:03:35;4.50;;;1.40;;
12433;SDS011;6281;49.038;8.372;2023-11-21T02:06:02;4.03;;;1.50;;
12433;SDS011;6281;49.038;8.372;2023-11-21T02:08:29;3.67;;;1.83;;
12433;SDS011;6281;49.038;8.372;2023-11-21T02:10:56;6.20;;;2.07;;
12433;SDS011;6281;49.038;8.372;2023-11-21T02:13:25;5.20;;;1.10;;
12433;SDS011;6281;49.038;8.372;2023-11-21T02:15:52;4.57;;;1.90;;
12433;SDS011;6281;49.038;8.372;2023-11-21T02:18:19;5.50;;;1.33;;
12433;SDS011;6281;49.038;8.372;2023-11-21T02:20:47;6.03;;;1.73;;
12433;SDS011;6281;49.038;8.372;2023-11-21T02:23:15;3.93;;;1.80;;
12433;SDS011;6281;49.038;8.372;2023-11-21T02:25:43;2.60;;;1.50;;
12433;SDS011;6281;49.038;8.372;2023-11-21T02:28:10;8.80;;;1.70;;
12433;SDS011;6281;49.038;8.372;2023-11-21T02:30:37;7.00;;;1.87;;
12433;SDS011;6281;49.038;8.372;2023-11-21T02:33:04;5.30;;;1.30;;
12433;SDS011;6281;49.038;8.372;2023-11-21T02:35:32;4.77;;;1.50;;
12433;SDS011;6281;49.038;8.372;2023-11-21T02:37:59;3.83;;;1.57;;
12433;SDS011;6281;49.038;8.372;2023-11-21T02:40:28;7.07;;;1.80;;
12433;SDS011;6281;49.038;8.372;2023-11-21T02:42:55;4.57;;;1.53;;
12433;SDS011;6281;49.038;8.372;2023-11-21T02:45:24;2.63;;;1.30;;
12433;SDS011;6281;49.038;8.372;2023-11-21T02:47:51;5.23;;;1.70;;
12433;SDS011;6281;49.038;8.372;2023-11-21T02:50:22;5.00;;;1.80;;
12433;SDS011;6281;49.038;8.372;2023-11-21T02:52:52;5.50;;;1.63;;
12433;SDS011;6281;49.038;8.372;2023-11-21T02:55:18;7.10;;;2.20;;
12433;SDS011;6281;49.038;8.372;2023-11-21T02:57:47;5.97;;;1.60;;
12433;SDS011;6281;49.038;8.372;2023-11-21T03:00:14;5.57;;;1.70;;
12433;SDS011;6281;49.038;8.372;2023-11-21T03:02:41;7.63;;;1.90;;
12433;SDS011;6281;49.038;8.372;2023-11-21T03:05:08;5.40;;;1.70;;
12433;SDS011;6281;49.038;8.372;2023-11-21T03:07:36;7.80;;;1.70;;
12433;SDS011;6281;49.038;8.372;2023-11-21T03:10:03;4.63;;;1.40;;
12433;SDS011;6281;49.038;8.372;2023-11-21T03:12:31;4.53;;;1.20;;
12433;SDS011;6281;49.038;8.372;2023-11-21T03:14:59;6.33;;;1.80;;
12433;SDS011;6281;49.038;8.372;2023-11-21T03:17:26;4.27;;;1.30;;
12433;SDS011;6281;49.038;8.372;2023-11-21T03:19:54;3.83;;;1.47;;
12433;SDS011;6281;49.038;8.372;2023-11-21T03:22:22;2.83;;;1.40;;
12433;SDS011;6281;49.038;8.372;2023-11-21T03:24:49;7.73;;;1.70;;
12433;SDS011;6281;49.038;8.372;2023-11-21T03:27:16;5.97;;;1.77;;
12433;SDS011;6281;49.038;8.372;2023-11-21T03:29:43;4.73;;;2.07;;
12433;SDS011;6281;49.038;8.372;2023-11-21T03:32:11;7.23;;;1.60;;
12433;SDS011;6281;49.038;8.372;2023-11-21T03:34:52;5.03;;;1.77;;
12433;SDS011;6281;49.038;8.372;2023-11-21T03:37:20;3.17;;;1.97;;
12433;SDS011;6281;49.038;8.372;2023-11-21T03:39:47;5.23;;;1.50;;
12433;SDS011;6281;49.038;8.372;2023-11-21T03:42:13;4.97;;;1.70;;
12433;SDS011;6281;49.038;8.372;2023-11-21T03:44:40;4.83;;;1.67;;
12433;SDS011;6281;49.038;8.372;2023-11-21T03:47:07;3.33;;;1.43;;
12433;SDS011;6281;49.038;8.372;2023-11-21T03:49:35;2.93;;;1.50;;
12433;SDS011;6281;49.038;8.372;2023-11-21T03:52:02;5.23;;;1.80;;
12433;SDS011;6281;49.038;8.372;2023-11-21T03:54:29;4.50;;;1.40;;
12433;SDS011;6281;49.038;8.372;2023-11-21T03:56:56;5.33;;;1.57;;
12433;SDS011;6281;49.038;8.372;2023-11-21T03:59:22;5.83;;;1.60;;
12433;SDS011;6281;49.038;8.372;2023-11-21T04:01:50;5.70;;;1.70;;
12433;SDS011;6281;49.038;8.372;2023-11-21T04:04:16;2.83;;;1.47;;
12433;SDS011;6281;49.038;8.372;2023-11-21T04:06:44;4.57;;;1.57;;
12433;SDS011;6281;49.038;8.372;2023-11-21T04:09:11;6.20;;;1.63;;
12433;SDS011;6281;49.038;8.372;2023-11-21T04:11:38;3.07;;;1.43;;
12433;SDS011;6281;49.038;8.372;2023-11-21T04:14:05;2.90;;;1.60;;
12433;SDS011;6281;49.038;8.372;2023-11-21T04:16:32;3.50;;;1.27;;
12433;SDS011;6281;49.038;8.372;2023-11-21T04:18:58;3.07;;;1.23;;
12433;SDS011;6281;49.038;8.372;2023-11-21T04:21:25;4.20;;;1.50;;
12433;SDS011;6281;49.038;8.372;2023-11-21T04:23:53;6.57;;;1.77;;
12433;SDS011;6281;49.038;8.372;2023-11-21T04:26:20;4.67;;;1.47;;
12433;SDS011;6281;49.038;8.372;2023-11-21T04:28:47;5.37;;;1.73;;
12433;SDS011;6281;49.038;8.372;2023-11-21T04:31:13;5.40;;;1.60;;
12433;SDS011;6281;49.038;8.372;2023-11-21T04:33:40;2.57;;;1.27;;
12433;SDS011;6281;49.038;8.372;2023-11-21T04:36:07;1.80;;;1.00;;
12433;SDS011;6281;49.038;8.372;2023-11-21T04:38:35;3.83;;;1.53;;
12433;SDS011;6281;49.038;8.372;2023-11-21T04:41:03;2.33;;;1.37;;
12433;SDS011;6281;49.038;8.372;2023-11-21T04:43:30;5.07;;;1.70;;
12433;SDS011;6281;49.038;8.372;2023-11-21T04:45:57;4.90;;;1.30;;
12433;SDS011;6281;49.038;8.372;2023-11-21T04:48:24;3.63;;;1.50;;
12433;SDS011;6281;49.038;8.372;2023-11-21T04:50:51;3.60;;;1.70;;
12433;SDS011;6281;49.038;8.372;2023-11-21T04:53:18;2.17;;;1.20;;
12433;SDS011;6281;49.038;8.372;2023-11-21T04:55:44;3.10;;;1.50;;
12433;SDS011;6281;49.038;8.372;2023-11-21T04:58:13;4.20;;;1.60;;
12433;SDS011;6281;49.038;8.372;2023-11-21T05:00:40;4.97;;;1.70;;
12433;SDS011;6281;49.038;8.372;2023-11-21T05:03:07;4.60;;;1.90;;
12433;SDS011;6281;49.038;8.372;2023-11-21T05:05:34;2.70;;;1.70;;
12433;SDS011;6281;49.038;8.372;2023-11-21T05:08:01;4.57;;;1.80;;
12433;SDS011;6281;49.038;8.372;2023-11-21T05:10:28;3.87;;;1.90;;
12433;SDS011;6281;49.038;8.372;2023-11-21T05:12:55;6.73;;;2.10;;
12433;SDS011;6281;49.038;8.372;2023-11-21T05:15:24;4.17;;;2.50;;
12433;SDS011;6281;49.038;8.372;2023-11-21T05:17:52;3.77;;;2.73;;
12433;SDS011;6281;49.038;8.372;2023-11-21T05:20:20;6.57;;;2.37;;
12433;SDS011;6281;49.038;8.372;2023-11-21T05:22:47;6.47;;;2.47;;
12433;SDS011;6281;49.038;8.372;2023-11-21T05:25:14;7.33;;;2.70;;
12433;SDS011;6281;49.038;8.372;2023-11-21T05:27:43;5.17;;;2.13;;
12433;SDS011;6281;49.038;8.372;2023-11-21T05:30:10;6.03;;;2.40;;
12433;SDS011;6281;49.038;8.372;2023-11-21T05:32:39;8.33;;;2.30;;
12433;SDS011;6281;49.038;8.372;2023-11-21T05:35:08;4.33;;;2.20;;
12433;SDS011;6281;49.038;8.372;2023-11-21T05:37:39;5.37;;;2.10;;
12433;SDS011;6281;49.038;8.372;2023-11-21T05:40:06;7.23;;;2.43;;
12433;SDS011;6281;49.038;8.372;2023-11-21T05:42:34;6.13;;;2.90;;
12433;SDS011;6281;49.038;8.372;2023-11-21T05:45:00;4.30;;;2.70;;
12433;SDS011;6281;49.038;8.372;2023-11-21T05:47:35;4.07;;;2.67;;
12433;SDS011;6281;49.038;8.372;2023-11-21T05:50:06;3.20;;;2.30;;
12433;SDS011;6281;49.038;8.372;2023-11-21T05:55:04;3.50;;;2.50;;
12433;SDS011;6281;49.038;8.372;2023-11-21T05:57:32;3.83;;;2.77;;
12433;SDS011;6281;49.038;8.372;2023-11-21T06:00:01;5.20;;;2.47;;
12433;SDS011;6281;49.038;8.372;2023-11-21T06:02:36;4.67;;;2.90;;
12433;SDS011;6281;49.038;8.372;2023-11-21T06:05:03;4.73;;;3.27;;
12433;SDS011;6281;49.038;8.372;2023-11-21T06:07:32;5.30;;;3.43;;
12433;SDS011;6281;49.038;8.372;2023-11-21T06:09:59;4.30;;;2.97;;
12433;SDS011;6281;49.038;8.372;2023-11-21T06:12:27;5.97;;;3.13;;
12433;SDS011;6281;49.038;8.372;2023-11-21T06:14:54;5.83;;;3.60;;
12433;SDS011;6281;49.038;8.372;2023-11-21T06:17:21;4.97;;;2.67;;
12433;SDS011;6281;49.038;8.372;2023-11-21T06:19:49;5.63;;;3.33;;
12433;SDS011;6281;49.038;8.372;2023-11-21T06:22:19;5.47;;;3.17;;
12433;SDS011;6281;49.038;8.372;2023-11-21T06:24:45;6.57;;;3.10;;
12433;SDS011;6281;49.038;8.372;2023-11-21T06:27:12;5.43;;;3.50;;
12433;SDS011;6281;49.038;8.372;2023-11-21T06:29:39;6.70;;;3.30;;
12433;SDS011;6281;49.038;8.372;2023-11-21T06:32:07;6.10;;;3.13;;
12433;SDS011;6281;49.038;8.372;2023-11-21T06:34:34;6.13;;;4.00;;
12433;SDS011;6281;49.038;8.372;2023-11-21T06:37:01;6.27;;;4.07;;
12433;SDS011;6281;49.038;8.372;2023-11-21T06:39:29;8.67;;;4.33;;
12433;SDS011;6281;49.038;8.372;2023-11-21T06:41:57;7.40;;;4.30;;
12433;SDS011;6281;49.038;8.372;2023-11-21T06:44:25;6.97;;;3.83;;
12433;SDS011;6281;49.038;8.372;2023-11-21T06:46:53;10.37;;;4.40;;
12433;SDS011;6281;49.038;8.372;2023-11-21T06:49:19;7.40;;;3.70;;
12433;SDS011;6281;49.038;8.372;2023-11-21T06:51:46;5.90;;;4.20;;
12433;SDS011;6281;49.038;8.372;2023-11-21T06:54:13;6.67;;;5.03;;
12433;SDS011;6281;49.038;8.372;2023-11-21T06:56:42;8.47;;;5.33;;
12433;SDS011;6281;49.038;8.372;2023-11-21T06:59:08;6.87;;;4.73;;
12433;SDS011;6281;49.038;8.372;2023-11-21T07:01:35;7.27;;;4.97;;
12433;SDS011;6281;49.038;8.372;2023-11-21T07:04:04;7.00;;;4.83;;
12433;SDS011;6281;49.038;8.372;2023-11-21T07:06:31;7.50;;;4.63;;
12433;SDS011;6281;49.038;8.372;2023-11-21T07:08:58;10.70;;;4.97;;
12433;SDS011;6281;49.038;8.372;2023-11-21T07:11:26;7.20;;;4.60;;
12433;SDS011;6281;49.038;8.372;2023-11-21T07:13:54;6.60;;;4.87;;
12433;SDS011;6281;49.038;8.372;2023-11-21T07:16:21;7.80;;;4.73;;
12433;SDS011;6281;49.038;8.372;2023-11-21T07:18:48;9.50;;;4.67;;
12433;SDS011;6281;49.038;8.372;2023-11-21T07:21:15;11.50;;;5.27;;
12433;SDS011;6281;49.038;8.372;2023-11-21T07:23:43;8.50;;;5.10;;
12433;SDS011;6281;49.038;8.372;2023-11-21T07:26:09;10.10;;;5.30;;
12433;SDS011;6281;49.038;8.372;2023-11-21T07:28:36;6.90;;;4.70;;
12433;SDS011;6281;49.038;8.372;2023-11-21T07:31:05;6.70;;;4.30;;
12433;SDS011;6281;49.038;8.372;2023-11-21T07:33:32;7.73;;;5.00;;
12433;SDS011;6281;49.038;8.372;2023-11-21T07:35:59;8.67;;;5.47;;
12433;SDS011;6281;49.038;8.372;2023-11-21T07:38:26;7.30;;;5.20;;
12433;SDS011;6281;49.038;8.372;2023-11-21T07:40:53;10.63;;;5.57;;
12433;SDS011;6281;49.038;8.372;2023-11-21T07:43:20;8.83;;;5.53;;
12433;SDS011;6281;49.038;8.372;2023-11-21T07:45:47;8.23;;;5.27;;
12433;SDS011;6281;49.038;8.372;2023-11-21T07:48:15;6.63;;;4.90;;
12433;SDS011;6281;49.038;8.372;2023-11-21T07:50:42;9.43;;;5.13;;
12433;SDS011;6281;49.038;8.372;2023-11-21T07:53:09;7.17;;;5.53;;
12433;SDS011;6281;49.038;8.372;2023-11-21T07:55:36;9.97;;;5.50;;
12433;SDS011;6281;49.038;8.372;2023-11-21T07:58:03;8.77;;;5.53;;
12433;SDS011;6281;49.038;8.372;2023-11-21T08:00:30;8.37;;;5.47;;
12433;SDS011;6281;49.038;8.372;2023-11-21T08:02:56;7.37;;;5.20;;
12433;SDS011;6281;49.038;8.372;2023-11-21T08:05:25;7.53;;;5.23;;
12433;SDS011;6281;49.038;8.372;2023-11-21T08:07:52;5.87;;;4.87;;
12433;SDS011;6281;49.038;8.372;2023-11-21T08:10:19;7.93;;;4.57;;
12433;SDS011;6281;49.038;8.372;2023-11-21T08:12:46;7.20;;;5.00;;
12433;SDS011;6281;49.038;8.372;2023-11-21T08:15:16;6.93;;;4.30;;
12433;SDS011;6281;49.038;8.372;2023-11-21T08:17:43;10.17;;;5.20;;
12433;SDS011;6281;49.038;8.372;2023-11-21T08:20:10;10.27;;;5.37;;
12433;SDS011;6281;49.038;8.372;2023-11-21T08:22:40;8.60;;;5.73;;
12433;SDS011;6281;49.038;8.372;2023-11-21T08:25:07;8.83;;;5.67;;
12433;SDS011;6281;49.038;8.372;2023-11-21T08:27:33;8.77;;;5.63;;
12433;SDS011;6281;49.038;8.372;2023-11-21T08:30:00;7.73;;;5.63;;
12433;SDS011;6281;49.038;8.372;2023-11-21T08:32:28;7.33;;;5.63;;
12433;SDS011;6281;49.038;8.372;2023-11-21T08:34:57;7.13;;;5.23;;
12433;SDS011;6281;49.038;8.372;2023-11-21T08:37:24;7.17;;;5.60;;
12433;SDS011;6281;49.038;8.372;2023-11-21T08:39:53;8.20;;;5.23;;
12433;SDS011;6281;49.038;8.372;2023-11-21T08:42:20;8.60;;;6.17;;
12433;SDS011;6281;49.038;8.372;2023-11-21T08:44:48;10.07;;;6.20;;
12433;SDS011;6281;49.038;8.372;2023-11-21T08:47:15;9.60;;;6.50;;
12433;SDS011;6281;49.038;8.372;2023-11-21T08:49:41;9.47;;;5.57;;
12433;SDS011;6281;49.038;8.372;2023-11-21T08:52:08;8.73;;;5.87;;
12433;SDS011;6281;49.038;8.372;2023-11-21T08:54:35;10.07;;;6.00;;
12433;SDS011;6281;49.038;8.372;2023-11-21T08:57:04;7.83;;;6.17;;
12433;SDS011;6281;49.038;8.372;2023-11-21T08:59:31;8.17;;;6.30;;
12433;SDS011;6281;49.038;8.372;2023-11-21T09:01:58;8.43;;;6.47;;
12433;SDS011;6281;49.038;8.372;2023-11-21T09:04:25;10.13;;;6.53;;
12433;SDS011;6281;49.038;8.372;2023-11-21T09:06:52;8.10;;;5.90;;
12433;SDS011;6281;49.038;8.372;2023-11-21T09:09:19;8.57;;;6.23;;
12433;SDS011;6281;49.038;8.372;2023-11-21T09:11:46;10.90;;;6.10;;
12433;SDS011;6281;49.038;8.372;2023-11-21T09:14:18;7.30;;;5.10;;
12433;SDS011;6281;49.038;8.372;2023-11-21T09:16:45;9.60;;;5.80;;
12433;SDS011;6281;49.038;8.372;2023-11-21T09:19:12;8.07;;;5.90;;
12433;SDS011;6281;49.038;8.372;2023-11-21T09:21:40;7.73;;;5.77;;
12433;SDS011;6281;49.038;8.372;2023-11-21T09:24:07;7.57;;;5.97;;
12433;SDS011;6281;49.038;8.372;2023-11-21T09:26:35;8.83;;;6.07;;
12433;SDS011;6281;49.038;8.372;2023-11-21T09:29:02;8.37;;;5.97;;
12433;SDS011;6281;49.038;8.372;2023-11-21T09:31:30;9.17;;;6.57;;
12433;SDS011;6281;49.038;8.372;2023-11-21T09:33:58;7.27;;;5.90;;
12433;SDS011;6281;49.038;8.372;2023-11-21T09:36:25;8.90;;;6.70;;
12433;SDS011;6281;49.038;8.372;2023-11-21T09:38:55;8.53;;;6.43;;
12433;SDS011;6281;49.038;8.372;2023-11-21T09:41:23;9.60;;;6.87;;
12433;SDS011;6281;49.038;8.372;2023-11-21T09:44:00;9.77;;;7.10;;
12433;SDS011;6281;49.038;8.372;2023-11-21T09:46:34;9.93;;;6.07;;
12433;SDS011;6281;49.038;8.372;2023-11-21T09:49:04;11.27;;;6.50;;
12433;SDS011;6281;49.038;8.372;2023-11-21T09:51:37;10.80;;;6.43;;
12433;SDS011;6281;49.038;8.372;2023-11-21T09:54:08;9.87;;;6.73;;
12433;SDS011;6281;49.038;8.372;2023-11-21T09:56:36;10.03;;;6.87;;
12433;SDS011;6281;49.038;8.372;2023-11-21T09:59:03;7.97;;;5.90;;
12433;SDS011;6281;49.038;8.372;2023-11-21T10:01:36;9.90;;;6.57;;
12433;SDS011;6281;49.038;8.372;2023-11-21T10:04:04;8.83;;;6.03;;
12433;SDS011;6281;49.038;8.372;2023-11-21T10:06:36;7.97;;;5.40;;
12433;SDS011;6281;49.038;8.372;2023-11-21T10:09:05;7.40;;;5.10;;
12433;SDS011;6281;49.038;8.372;2023-11-21T10:11:36;7.00;;;5.80;;
12433;SDS011;6281;49.038;8.372;2023-11-21T10:14:06;6.30;;;4.50;;
12433;SDS011;6281;49.038;8.372;2023-11-21T10:16:40;7.67;;;5.07;;
12433;SDS011;6281;49.038;8.372;2023-11-21T10:19:09;5.90;;;4.37;;
12433;SDS011;6281;49.038;8.372;2023-11-21T10:21:41;5.50;;;4.27;;
12433;SDS011;6281;49.038;8.372;2023-11-21T10:24:08;6.00;;;4.10;;
12433;SDS011;6281;49.038;8.372;2023-11-21T10:26:35;6.30;;;4.73;;
12433;SDS011;6281;49.038;8.372;2023-11-21T10:29:02;6.40;;;4.33;;
12433;SDS011;6281;49.038;8.372;2023-11-21T10:31:29;5.10;;;3.57;;
12433;SDS011;6281;49.038;8.372;2023-11-21T10:34:11;6.77;;;4.93;;
12433;SDS011;6281;49.038;8.372;2023-11-21T10:36:42;6.70;;;4.57;;
12433;SDS011;6281;49.038;8.372;2023-11-21T10:39:09;6.13;;;3.80;;
12433;SDS011;6281;49.038;8.372;2023-11-21T10:41:43;6.10;;;3.90;;
12433;SDS011;6281;49.038;8.372;2023-11-21T10:44:10;5.67;;;4.10;;
12433;SDS011;6281;49.038;8.372;2023-11-21T10:46:39;8.70;;;5.37;;
12433;SDS011;6281;49.038;8.372;2023-11-21T10:49:09;8.70;;;4.50;;
12433;SDS011;6281;49.038;8.372;2023-11-21T10:51:38;7.43;;;4.63;;
12433;SDS011;6281;49.038;8.372;2023-11-21T10:54:10;5.13;;;3.90;;
12433;SDS011;6281;49.038;8.372;2023-11-21T10:56:38;6.27;;;4.20;;
12433;SDS011;6281;49.038;8.372;2023-11-21T10:59:08;7.20;;;4.93;;
12433;SDS011;6281;49.038;8.372;2023-11-21T11:01:39;6.37;;;4.10;;
12433;SDS011;6281;49.038;8.372;2023-11-21T11:04:08;6.50;;;4.47;;
12433;SDS011;6281;49.038;8.372;2023-11-21T11:06:41;5.93;;;4.07;;
12433;SDS011;6281;49.038;8.372;2023-11-21T11:09:10;5.57;;;4.37;;
12433;SDS011;6281;49.038;8.372;2023-11-21T11:11:41;7.17;;;4.33;;
12433;SDS011;6281;49.038;8.372;2023-11-21T11:14:10;7.13;;;4.53;;
12433;SDS011;6281;49.038;8.372;2023-11-21T11:16:38;5.33;;;3.70;;
12433;SDS011;6281;49.038;8.372;2023-11-21T11:19:06;5.03;;;4.00;;
12433;SDS011;6281;49.038;8.372;2023-11-21T11:21:36;5.53;;;4.40;;
12433;SDS011;6281;49.038;8.372;2023-11-21T11:24:17;5.50;;;4.17;;
12433;SDS011;6281;49.038;8.372;2023-11-21T11:27:01;5.13;;;4.27;;
12433;SDS011;6281;49.038;8.372;2023-11-21T11:29:41;6.47;;;3.90;;
12433;SDS011;6281;49.038;8.372;2023-11-21T11:32:16;6.50;;;4.23;;
12433;SDS011;6281;49.038;8.372;2023-11-21T11:34:54;5.93;;;4.07;;
12433;SDS011;6281;49.038;8.372;2023-11-21T11:37:28;6.40;;;4.67;;
12433;SDS011;6281;49.038;8.372;2023-11-21T11:39:56;7.57;;;4.50;;
12433;SDS011;6281;49.038;8.372;2023-11-21T11:42:23;6.30;;;4.70;;
12433;SDS011;6281;49.038;8.372;2023-11-21T11:44:50;6.47;;;4.60;;
12433;SDS011;6281;49.038;8.372;2023-11-21T11:47:20;6.20;;;4.60;;
12433;SDS011;6281;49.038;8.372;2023-11-21T11:49:56;5.90;;;4.60;;
12433;SDS011;6281;49.038;8.372;2023-11-21T11:52:32;9.13;;;4.30;;
12433;SDS011;6281;49.038;8.372;2023-11-21T11:55:05;8.00;;;5.50;;
12433;SDS011;6281;49.038;8.372;2023-11-21T11:57:35;6.93;;;5.40;;
12433;SDS011;6281;49.038;8.372;2023-11-21T12:00:07;6.53;;;5.70;;
12433;SDS011;6281;49.038;8.372;2023-11-21T12:02:41;6.93;;;5.07;;
12433;SDS011;6281;49.038;8.372;2023-11-21T12:05:09;6.57;;;5.27;;
12433;SDS011;6281;49.038;8.372;2023-11-21T12:07:44;6.73;;;4.50;;
12433;SDS011;6281;49.038;8.372;2023-11-21T12:10:16;8.20;;;4.93;;
12433;SDS011;6281;49.038;8.372;2023-11-21T12:12:45;8.27;;;5.07;;
12433;SDS011;6281;49.038;8.372;2023-11-21T12:15:13;8.07;;;5.13;;
12433;SDS011;6281;49.038;8.372;2023-11-21T12:17:41;7.10;;;5.10;;
12433;SDS011;6281;49.038;8.372;2023-11-21T12:20:09;6.20;;;4.80;;
12433;SDS011;6281;49.038;8.372;2023-11-21T12:22:53;6.03;;;4.53;;
12433;SDS011;6281;49.038;8.372;2023-11-21T12:28:18;8.57;;;5.60;;
12433;SDS011;6281;49.038;8.372;2023-11-21T12:30:47;8.73;;;5.63;;
12433;SDS011;6281;49.038;8.372;2023-11-21T12:33:14;8.60;;;5.80;;
12433;SDS011;6281;49.038;8.372;2023-11-21T12:35:42;9.13;;;5.90;;
12433;SDS011;6281;49.038;8.372;2023-11-21T12:38:10;6.97;;;5.17;;
12433;SDS011;6281;49.038;8.372;2023-11-21T12:40:38;5.97;;;4.67;;
12433;SDS011;6281;49.038;8.372;2023-11-21T12:43:05;6.70;;;5.17;;
12433;SDS011;6281;49.038;8.372;2023-11-21T12:45:34;6.53;;;5.07;;
12433;SDS011;6281;49.038;8.372;2023-11-21T12:48:03;8.07;;;5.20;;
12433;SDS011;6281;49.038;8.372;2023-11-21T12:50:36;7.13;;;5.20;;
12433;SDS011;6281;49.038;8.372;2023-11-21T12:53:04;7.80;;;5.50;;
12433;SDS011;6281;49.038;8.372;2023-11-21T12:55:34;6.10;;;4.87;;
12433;SDS011;6281;49.038;8.372;2023-11-21T12:58:02;7.07;;;5.23;;
12433;SDS011;6281;49.038;8.372;2023-11-21T13:00:34;7.33;;;4.97;;
12433;SDS011;6281;49.038;8.372;2023-11-21T13:03:03;7.77;;;5.57;;
12433;SDS011;6281;49.038;8.372;2023-11-21T13:05:32;7.47;;;5.87;;
12433;SDS011;6281;49.038;8.372;2023-11-21T13:08:00;10.10;;;5.50;;
12433;SDS011;6281;49.038;8.372;2023-11-21T13:10:29;7.80;;;4.87;;
12433;SDS011;6281;49.038;8.372;2023-11-21T13:12:58;5.57;;;4.70;;
12433;SDS011;6281;49.038;8.372;2023-11-21T13:15:26;7.70;;;4.37;;
12433;SDS011;6281;49.038;8.372;2023-11-21T13:17:56;4.73;;;4.33;;
12433;SDS011;6281;49.038;8.372;2023-11-21T13:20:23;5.10;;;4.33;;
12433;SDS011;6281;49.038;8.372;2023-11-21T13:22:51;6.53;;;4.90;;
12433;SDS011;6281;49.038;8.372;2023-11-21T13:25:19;4.97;;;4.47;;
12433;SDS011;6281;49.038;8.372;2023-11-21T13:27:47;6.33;;;4.90;;
12433;SDS011;6281;49.038;8.372;2023-11-21T13:30:16;6.97;;;5.40;;
12433;SDS011;6281;49.038;8.372;2023-11-21T13:32:46;6.83;;;6.13;;
12433;SDS011;6281;49.038;8.372;2023-11-21T13:35:16;6.10;;;5.50;;
12433;SDS011;6281;49.038;8.372;2023-11-21T13:37:47;7.30;;;5.77;;
12433;SDS011;6281;49.038;8.372;2023-11-21T13:40:16;7.33;;;5.50;;
12433;SDS011;6281;49.038;8.372;2023-11-21T13:42:48;7.97;;;5.50;;
12433;SDS011;6281;49.038;8.372;2023-11-21T13:45:19;8.17;;;5.43;;
12433;SDS011;6281;49.038;8.372;2023-11-21T13:47:48;5.17;;;4.67;;
12433;SDS011;6281;49.038;8.372;2023-11-21T13:50:17;7.77;;;5.17;;
12433;SDS011;6281;49.038;8.372;2023-11-21T13:52:48;5.50;;;4.73;;
12433;SDS011;6281;49.038;8.372;2023-11-21T13:55:16;5.53;;;4.43;;
12433;SDS011;6281;49.038;8.372;2023-11-21T13:57:43;9.77;;;4.23;;
12433;SDS011;6281;49.038;8.372;2023-11-21T14:00:14;5.33;;;4.23;;
12433;SDS011;6281;49.038;8.372;2023-11-21T14:03:06;6.23;;;4.53;;
12433;SDS011;6281;49.038;8.372;2023-11-21T14:05:41;5.53;;;4.60;;
12433;SDS011;6281;49.038;8.372;2023-11-21T14:08:08;8.50;;;4.80;;
12433;SDS011;6281;49.038;8.372;2023-11-21T14:10:37;6.97;;;4.37;;
12433;SDS011;6281;49.038;8.372;2023-11-21T14:13:08;4.73;;;4.00;;
12433;SDS011;6281;49.038;8.372;2023-11-21T14:15:37;7.30;;;4.27;;
12433;SDS011;6281;49.038;8.372;2023-11-21T14:18:09;6.50;;;3.97;;
12433;SDS011;6281;49.038;8.372;2023-11-21T14:20:37;6.87;;;4.40;;
12433;SDS011;6281;49.038;8.372;2023-11-21T14:23:05;5.23;;;4.27;;
12433;SDS011;6281;49.038;8.372;2023-11-21T14:25:32;6.20;;;4.80;;
12433;SDS011;6281;49.038;8.372;2023-11-21T14:27:59;6.60;;;4.67;;
12433;SDS011;6281;49.038;8.372;2023-11-21T14:30:28;6.13;;;4.17;;
12433;SDS011;6281;49.038;8.372;2023-11-21T14:32:57;4.80;;;4.03;;
12433;SDS011;6281;49.038;8.372;2023-11-21T14:35:25;6.27;;;3.87;;
12433;SDS011;6281;49.038;8.372;2023-11-21T14:37:53;5.13;;;4.07;;
12433;SDS011;6281;49.038;8.372;2023-11-21T14:40:20;7.67;;;4.13;;
12433;SDS011;6281;49.038;8.372;2023-11-21T14:42:49;5.43;;;4.17;;
12433;SDS011;6281;49.038;8.372;2023-11-21T14:45:18;4.93;;;4.33;;
12433;SDS011;6281;49.038;8.372;2023-11-21T14:47:45;5.37;;;4.20;;
12433;SDS011;6281;49.038;8.372;2023-11-21T14:50:19;4.80;;;4.23;;
12433;SDS011;6281;49.038;8.372;2023-11-21T14:53:01;6.63;;;3.90;;
12433;SDS011;6281;49.038;8.372;2023-11-21T14:55:31;6.73;;;3.80;;
12433;SDS011;6281;49.038;8.372;2023-11-21T14:58:04;4.27;;;3.87;;
12433;SDS011;6281;49.038;8.372;2023-11-21T15:00:31;5.97;;;4.20;;
12433;SDS011;6281;49.038;8.372;2023-11-21T15:03:08;4.67;;;3.87;;
12433;SDS011;6281;49.038;8.372;2023-11-21T15:05:46;4.97;;;3.70;;
12433;SDS011;6281;49.038;8.372;2023-11-21T15:08:15;4.37;;;3.77;;
12433;SDS011;6281;49.038;8.372;2023-11-21T15:11:41;5.80;;;3.60;;
12433;SDS011;6281;49.038;8.372;2023-11-21T15:14:00;4.73;;;3.20;;